Airports

 

 

Airport Name Latest METAR Visual Conditions
Atlanta International (ATL) KATL 211952Z 21009KT 10SM SCT032 BKN070 BKN110 BKN200 24/16 A3010 RMK AO2 SLP185 TCU DSNT SE-S ACC DSNT E T02440161 VFR
Asheville Regional (AVL) KAVL 211954Z AUTO 21012KT 10SM SCT060 22/14 A3009 RMK AO2 SLP174 T02170144 VFR
Birmingham International (BHM) KBHM 211953Z 18005KT 10SM FEW020 BKN035 27/20 A3008 RMK AO2 SLP168 T02670200 $ VFR
Chattanooga (CHA) KCHA 211953Z 18009KT 10SM SCT037 SCT250 24/18 A3003 RMK AO2 SLP163 MDT CU N T02440178 VFR
Charlotte International (CLT) KCLT 211952Z 23008KT 10SM SCT047 SCT080 BKN110 BKN250 27/14 A3006 RMK AO2 SLP173 T02670144 VFR
Greensboro Piedmont-Triad (GSO) KGSO 211954Z 21008KT 10SM FEW060 SCT250 24/12 A3002 RMK AO2 SLP159 T02440117 VFR
Greenville-Spartanburg International (GSP) KGSP 211953Z 22011KT 10SM SCT029 22/15 A3009 RMK AO2 RAB20E30 SLP182 P0000 T02170150 VFR
Middle Georgia Regional Airport (MCN) KMCN 211953Z 25008KT 10SM FEW038 27/17 A3010 RMK AO2 SLP189 T02720167 VFR
Tri-Cities Airport (TRI) KTRI 211953Z 28005KT 10SM BKN020 OVC050 19/16 A3005 RMK AO2 RAE1858 SLP162 P0000 T01890156 MVFR
Knoxville Regional (TYS) KTYS 211953Z 21012KT 10SM SCT020 BKN060 22/18 A3001 RMK AO2 SLP156 T02220183 VFR